Time;durP1;ratioP1;P1;durP2;ratioP2;P2;SDS_P1;SDS_P2;PMS_P1;PMS_P2;Temp;Humidity;BMP_temperature;BMP_pressure;BME280_temperature;BME280_humidity;BME280_pressure;Samples;Min_cycle;Max_cycle;Signal;HPM_P1;HPM_P2
2024/01/17 00:00:17;;;;;;;9.40;4.10;;;-1.90;99.90;;;;;;5033324;28;20960;-52
2024/01/17 00:02:44;;;;;;;5.03;4.30;;;-1.90;99.90;;;;;;5034133;28;20443;-52
2024/01/17 00:05:11;;;;;;;6.80;4.43;;;-1.90;99.90;;;;;;5030396;28;20447;-52
2024/01/17 00:07:37;;;;;;;10.27;4.50;;;-2.00;99.90;;;;;;5031970;28;20557;-53
2024/01/17 00:10:04;;;;;;;7.20;4.47;;;-2.10;99.90;;;;;;5026886;28;20439;-53
2024/01/17 00:12:31;;;;;;;8.33;4.43;;;-2.20;99.90;;;;;;5025455;28;20876;-52
2024/01/17 00:14:59;;;;;;;6.67;4.77;;;-2.30;99.90;;;;;;5025715;28;20485;-52
2024/01/17 00:17:26;;;;;;;5.60;4.60;;;-2.40;99.90;;;;;;5029710;28;20461;-52
2024/01/17 00:19:52;;;;;;;6.43;4.67;;;-2.40;99.90;;;;;;5043576;28;20459;-52
2024/01/17 00:22:19;;;;;;;8.37;5.07;;;-2.50;99.90;;;;;;5047593;28;20463;-57
2024/01/17 00:24:46;;;;;;;7.80;4.40;;;-2.50;99.90;;;;;;5039174;28;20452;-51
2024/01/17 00:27:13;;;;;;;5.77;4.43;;;-2.50;99.90;;;;;;5025602;28;20495;-52
2024/01/17 00:29:40;;;;;;;11.03;5.30;;;-2.50;99.90;;;;;;5015378;28;20435;-52
2024/01/17 00:32:08;;;;;;;5.90;4.80;;;-2.50;99.90;;;;;;5026591;28;20818;-52
2024/01/17 00:34:35;;;;;;;6.13;5.33;;;-2.50;99.90;;;;;;5026824;28;20443;-51
2024/01/17 00:37:02;;;;;;;10.40;4.50;;;-2.60;99.90;;;;;;5029757;28;20447;-52
2024/01/17 00:39:28;;;;;;;5.77;5.23;;;-2.60;99.90;;;;;;5033369;28;20466;-53
2024/01/17 00:41:55;;;;;;;8.57;5.00;;;-2.70;99.90;;;;;;5040033;28;20509;-53
2024/01/17 00:44:21;;;;;;;7.00;4.70;;;-2.70;99.90;;;;;;5052191;28;20435;-56
2024/01/17 00:46:48;;;;;;;9.80;5.27;;;-2.70;99.90;;;;;;5044169;28;20483;-53
2024/01/17 00:49:16;;;;;;;8.03;5.40;;;-2.60;99.90;;;;;;5034573;28;20929;-53
2024/01/17 00:51:43;;;;;;;7.43;6.23;;;-2.60;99.90;;;;;;5026372;28;20435;-52
2024/01/17 00:54:10;;;;;;;14.73;6.10;;;-2.50;99.90;;;;;;5026099;28;20818;-51
2024/01/17 00:56:37;;;;;;;9.03;6.00;;;-2.60;99.90;;;;;;5034353;28;20462;-53
2024/01/17 00:59:04;;;;;;;7.77;6.90;;;-2.60;99.90;;;;;;5031111;28;20469;-53
2024/01/17 01:01:31;;;;;;;7.50;5.57;;;-2.60;99.90;;;;;;5025378;28;20646;-52
2024/01/17 01:03:57;;;;;;;6.63;5.50;;;-2.60;99.90;;;;;;5022356;28;20919;-52
2024/01/17 01:06:25;;;;;;;9.67;6.57;;;-2.60;99.90;;;;;;5028222;28;20467;-53
2024/01/17 01:08:52;;;;;;;10.17;6.63;;;-2.60;99.10;;;;;;5030060;28;20496;-51
2024/01/17 01:11:18;;;;;;;8.67;7.17;;;-2.50;98.90;;;;;;5034285;28;20510;-53
2024/01/17 01:13:45;;;;;;;10.60;6.37;;;-2.50;99.80;;;;;;5041186;28;20443;-57
2024/01/17 01:16:12;;;;;;;9.07;6.93;;;-2.60;99.90;;;;;;5042572;28;20435;-55
2024/01/17 01:18:38;;;;;;;8.63;5.77;;;-2.60;99.90;;;;;;5049181;28;20467;-52
2024/01/17 01:21:05;;;;;;;7.77;6.10;;;-2.60;99.90;;;;;;5039470;28;20466;-52
2024/01/17 01:23:33;;;;;;;8.27;6.03;;;-2.60;99.90;;;;;;5043095;28;20557;-51
2024/01/17 01:26:00;;;;;;;7.57;6.30;;;-2.60;99.90;;;;;;5033138;28;20587;-51
2024/01/17 01:28:26;;;;;;;13.63;6.20;;;-2.60;99.90;;;;;;5032958;28;20818;-51
2024/01/17 01:30:53;;;;;;;15.93;5.97;;;-2.60;99.90;;;;;;5032601;28;20439;-53
2024/01/17 01:33:19;;;;;;;7.10;5.40;;;-2.60;99.90;;;;;;5032247;28;20500;-51
2024/01/17 01:35:46;;;;;;;9.30;5.40;;;-2.60;99.90;;;;;;5032444;28;20474;-52
2024/01/17 01:38:13;;;;;;;12.50;6.40;;;-2.60;99.90;;;;;;5029984;28;20455;-52
2024/01/17 01:40:40;;;;;;;9.20;5.93;;;-2.60;99.90;;;;;;5025055;28;20434;-52
2024/01/17 01:43:20;;;;;;;11.20;6.00;;;-2.70;99.90;;;;;;5028872;28;20948;-52
2024/01/17 01:46:02;;;;;;;11.50;5.83;;;-2.70;99.90;;;;;;5023002;28;20438;-52
2024/01/17 01:48:29;;;;;;;6.77;4.70;;;-2.70;99.90;;;;;;5018909;28;20494;-53
2024/01/17 01:50:55;;;;;;;8.83;5.23;;;-2.70;99.90;;;;;;5035972;28;20501;-52
2024/01/17 01:53:22;;;;;;;9.53;5.10;;;-2.80;99.90;;;;;;5035098;28;20494;-55
2024/01/17 01:55:52;;;;;;;12.70;5.97;;;-2.70;99.90;;;;;;5036955;28;20482;-52
2024/01/17 01:58:20;;;;;;;7.20;4.87;;;-2.70;99.90;;;;;;5036997;28;20562;-53
2024/01/17 02:00:47;;;;;;;5.47;4.90;;;-2.80;99.90;;;;;;5041437;28;20474;-52
2024/01/17 02:03:15;;;;;;;6.30;5.43;;;-2.80;99.90;;;;;;5032925;28;20446;-52
2024/01/17 02:05:42;;;;;;;11.87;6.40;;;-2.80;99.90;;;;;;5022474;28;20534;-52
2024/01/17 02:08:09;;;;;;;9.00;5.70;;;-2.80;99.90;;;;;;5031627;28;20855;-52
2024/01/17 02:10:36;;;;;;;5.87;5.27;;;-2.80;99.90;;;;;;5029979;28;20451;-51
2024/01/17 02:13:05;;;;;;;8.70;6.60;;;-2.90;99.90;;;;;;5030934;28;20443;-52
2024/01/17 02:15:32;;;;;;;12.60;6.33;;;-2.80;99.90;;;;;;5028269;28;20492;-55
2024/01/17 02:17:59;;;;;;;6.83;5.67;;;-2.80;99.90;;;;;;5032450;28;20486;-51
2024/01/17 02:20:25;;;;;;;9.27;6.40;;;-2.80;99.90;;;;;;5035823;28;20921;-53
2024/01/17 02:22:52;;;;;;;10.53;6.13;;;-2.90;99.90;;;;;;5033917;28;20540;-52
2024/01/17 02:25:20;;;;;;;11.07;5.83;;;-2.80;99.90;;;;;;5032450;28;20447;-52
2024/01/17 02:27:47;;;;;;;7.73;6.40;;;-2.90;99.90;;;;;;5029099;28;20961;-57
2024/01/17 02:30:15;;;;;;;9.40;6.47;;;-2.90;99.90;;;;;;5025866;28;20497;-53
2024/01/17 02:32:44;;;;;;;9.87;6.13;;;-2.90;99.90;;;;;;5031205;28;20461;-54
2024/01/17 02:35:11;;;;;;;15.30;6.60;;;-2.90;99.90;;;;;;5027588;28;20501;-51
2024/01/17 02:37:37;;;;;;;9.20;6.13;;;-3.00;99.90;;;;;;5030231;28;20466;-52
2024/01/17 02:40:05;;;;;;;7.20;5.80;;;-3.00;99.90;;;;;;5027013;28;20554;-53
2024/01/17 02:42:33;;;;;;;9.77;7.40;;;-3.00;99.90;;;;;;5033176;28;20493;-53
2024/01/17 02:44:59;;;;;;;9.70;6.83;;;-3.00;99.90;;;;;;5031804;28;20948;-52
2024/01/17 02:47:26;;;;;;;11.10;6.57;;;-3.00;99.90;;;;;;5034835;28;20937;-53
2024/01/17 02:49:52;;;;;;;10.03;6.47;;;-3.00;99.90;;;;;;5026677;28;20516;-52
2024/01/17 02:52:19;;;;;;;8.53;6.30;;;-3.10;99.90;;;;;;5023351;28;20466;-52
2024/01/17 02:54:46;;;;;;;9.57;7.00;;;-3.10;99.90;;;;;;5029997;28;20474;-53
2024/01/17 02:57:13;;;;;;;12.10;6.93;;;-3.10;99.90;;;;;;5029324;28;20491;-51
2024/01/17 02:59:41;;;;;;;9.90;7.20;;;-3.10;99.90;;;;;;5027270;28;21003;-56
2024/01/17 03:02:09;;;;;;;8.43;6.73;;;-3.10;99.90;;;;;;5023217;28;20493;-55
2024/01/17 03:04:35;;;;;;;11.90;6.30;;;-3.10;99.90;;;;;;5030013;28;20451;-57
2024/01/17 03:07:02;;;;;;;13.03;6.23;;;-3.20;99.90;;;;;;5026445;28;20506;-55
2024/01/17 03:09:29;;;;;;;12.27;7.77;;;-3.20;99.90;;;;;;5027819;28;20466;-55
2024/01/17 03:11:55;;;;;;;8.27;6.77;;;-3.30;99.90;;;;;;5028121;28;20435;-55
2024/01/17 03:14:22;;;;;;;9.93;7.10;;;-3.30;99.90;;;;;;5030550;28;20440;-54
2024/01/17 03:16:50;;;;;;;10.70;7.17;;;-3.30;99.90;;;;;;5032753;28;20438;-55
2024/01/17 03:19:16;;;;;;;9.50;6.70;;;-3.30;99.90;;;;;;5024470;28;20518;-55
2024/01/17 03:21:49;;;;;;;9.97;7.30;;;-3.30;99.90;;;;;;5030590;28;20478;-55
2024/01/17 03:24:15;;;;;;;8.03;6.87;;;-3.30;99.90;;;;;;5020166;28;20488;-56
2024/01/17 03:26:42;;;;;;;9.73;7.60;;;-3.30;99.90;;;;;;5027565;28;20497;-57
2024/01/17 03:29:09;;;;;;;10.60;6.83;;;-3.30;99.90;;;;;;5025063;28;20517;-55
2024/01/17 03:31:35;;;;;;;8.70;6.80;;;-3.30;99.90;;;;;;5034251;28;20450;-55
2024/01/17 03:34:03;;;;;;;7.13;6.27;;;-3.20;99.90;;;;;;5035097;28;20995;-55
2024/01/17 03:36:30;;;;;;;8.60;6.57;;;-3.20;99.90;;;;;;5033474;28;20824;-55
2024/01/17 03:38:56;;;;;;;11.40;7.70;;;-3.20;99.90;;;;;;5030433;28;20549;-56
2024/01/17 03:41:23;;;;;;;11.33;7.10;;;-3.20;99.90;;;;;;5020867;28;20545;-55
2024/01/17 03:43:51;;;;;;;11.17;7.27;;;-3.30;99.90;;;;;;5031469;28;20497;-58
2024/01/17 03:46:18;;;;;;;8.17;6.77;;;-3.20;99.90;;;;;;5029621;28;20491;-56
2024/01/17 03:48:44;;;;;;;12.10;7.97;;;-3.20;99.90;;;;;;5032914;28;20517;-55
2024/01/17 03:51:12;;;;;;;11.33;7.27;;;-3.20;99.90;;;;;;5029845;28;20459;-56
2024/01/17 03:53:39;;;;;;;9.90;6.50;;;-3.20;99.90;;;;;;5020545;28;20892;-55
2024/01/17 03:56:05;;;;;;;10.57;7.43;;;-3.20;99.90;;;;;;5027986;28;20833;-55
2024/01/17 03:58:32;;;;;;;8.77;6.93;;;-3.20;99.90;;;;;;5029830;28;20549;-55
2024/01/17 04:01:00;;;;;;;7.30;6.20;;;-3.20;99.90;;;;;;5024631;28;20489;-55
2024/01/17 04:03:27;;;;;;;11.30;7.00;;;-3.30;99.90;;;;;;5030671;28;20518;-55
2024/01/17 04:05:53;;;;;;;11.23;6.43;;;-3.30;99.90;;;;;;5022528;28;20537;-55
2024/01/17 04:08:21;;;;;;;6.47;5.83;;;-3.30;99.90;;;;;;5031355;28;20471;-55
2024/01/17 04:10:48;;;;;;;11.20;6.20;;;-3.30;99.90;;;;;;5027892;28;20620;-55
2024/01/17 04:13:14;;;;;;;8.93;6.80;;;-3.40;99.90;;;;;;5030525;28;20451;-56
2024/01/17 04:15:42;;;;;;;8.60;6.30;;;-3.40;99.90;;;;;;5023464;28;20477;-56
2024/01/17 04:18:09;;;;;;;9.83;7.10;;;-3.40;99.90;;;;;;5026530;28;20462;-55
2024/01/17 04:20:35;;;;;;;12.33;7.10;;;-3.40;99.90;;;;;;5022345;28;20478;-56
2024/01/17 04:23:04;;;;;;;8.70;6.83;;;-3.30;99.90;;;;;;5019453;28;20932;-56
2024/01/17 04:25:32;;;;;;;11.73;6.43;;;-3.30;99.90;;;;;;5027103;28;20474;-55
2024/01/17 04:27:59;;;;;;;11.03;7.30;;;-3.40;99.90;;;;;;5026747;28;20487;-55
2024/01/17 04:30:25;;;;;;;7.63;6.93;;;-3.40;99.90;;;;;;5027731;28;20478;-56
2024/01/17 04:32:52;;;;;;;9.93;7.63;;;-3.50;99.90;;;;;;5028878;28;20937;-55
2024/01/17 04:35:20;;;;;;;17.73;7.73;;;-3.50;99.90;;;;;;5021826;28;20506;-56
2024/01/17 04:37:47;;;;;;;13.50;6.60;;;-3.50;99.90;;;;;;5017576;28;20467;-56
2024/01/17 04:40:14;;;;;;;8.77;7.27;;;-3.50;99.90;;;;;;5023823;28;20471;-56
2024/01/17 04:42:43;;;;;;;13.40;7.13;;;-3.60;99.90;;;;;;5029020;28;20486;-56
2024/01/17 04:45:10;;;;;;;15.00;8.07;;;-3.60;99.90;;;;;;5022038;28;20843;-56
2024/01/17 04:47:37;;;;;;;8.60;6.77;;;-3.70;99.90;;;;;;5027355;28;20498;-56
2024/01/17 04:50:05;;;;;;;9.20;7.30;;;-3.70;99.90;;;;;;5025728;28;20478;-55
2024/01/17 04:52:31;;;;;;;11.20;7.90;;;-3.70;99.90;;;;;;5019306;28;20452;-55
2024/01/17 04:54:58;;;;;;;11.47;7.47;;;-3.70;99.90;;;;;;5026048;28;20443;-56
2024/01/17 04:57:24;;;;;;;11.87;7.80;;;-3.60;99.90;;;;;;5027050;28;20509;-56
2024/01/17 04:59:52;;;;;;;12.40;8.30;;;-3.60;99.90;;;;;;5027719;28;20492;-56
2024/01/17 05:02:19;;;;;;;11.23;7.13;;;-3.70;99.90;;;;;;5025816;28;20517;-55
2024/01/17 05:04:45;;;;;;;10.83;8.23;;;-3.60;99.90;;;;;;5032419;28;20493;-56
2024/01/17 05:07:12;;;;;;;11.93;7.97;;;-3.60;99.90;;;;;;5025992;28;20992;-55
2024/01/17 05:09:38;;;;;;;10.10;7.87;;;-3.60;99.90;;;;;;5023131;28;20880;-55
2024/01/17 05:12:06;;;;;;;13.47;7.90;;;-3.70;99.90;;;;;;5029379;28;20993;-55
2024/01/17 05:14:32;;;;;;;12.23;7.50;;;-3.70;99.90;;;;;;5024542;28;20443;-59
2024/01/17 05:17:01;;;;;;;12.00;8.03;;;-3.70;99.90;;;;;;5027654;28;20517;-57
2024/01/17 05:19:27;;;;;;;8.83;7.60;;;-3.70;99.90;;;;;;5030336;28;20480;-56
2024/01/17 05:21:54;;;;;;;8.70;7.67;;;-3.80;99.90;;;;;;5026039;28;20465;-56
2024/01/17 05:24:20;;;;;;;9.23;6.87;;;-3.60;99.90;;;;;;5025482;28;21007;-55
2024/01/17 05:26:47;;;;;;;11.80;7.60;;;-3.60;99.90;;;;;;5016676;28;20875;-60
2024/01/17 05:29:14;;;;;;;16.93;7.50;;;-3.60;99.90;;;;;;5028384;28;21012;-55
2024/01/17 05:31:40;;;;;;;9.93;7.20;;;-3.60;99.90;;;;;;5025342;28;20472;-55
2024/01/17 05:34:08;;;;;;;8.30;6.53;;;-3.60;99.90;;;;;;5026215;28;20486;-56
2024/01/17 05:36:37;;;;;;;12.40;7.50;;;-3.60;99.90;;;;;;5030267;28;20447;-56
2024/01/17 05:39:04;;;;;;;9.63;6.40;;;-3.70;99.90;;;;;;5027405;28;20462;-55
2024/01/17 05:41:30;;;;;;;8.60;7.40;;;-3.60;99.90;;;;;;5027677;28;20505;-55
2024/01/17 05:43:57;;;;;;;14.13;6.67;;;-3.60;99.90;;;;;;5021203;28;20518;-55
2024/01/17 05:46:24;;;;;;;8.70;7.20;;;-3.60;99.90;;;;;;5022549;28;20463;-55
2024/01/17 05:48:50;;;;;;;11.50;7.50;;;-3.60;99.90;;;;;;5025708;28;20877;-56
2024/01/17 05:51:19;;;;;;;13.47;7.97;;;-3.60;1.40;;;;;;5029970;28;20501;-56
2024/01/17 05:53:45;;;;;;;11.23;7.50;;;-3.70;99.90;;;;;;5030307;28;20439;-57
2024/01/17 05:56:12;;;;;;;12.17;7.80;;;-3.60;99.90;;;;;;5026881;28;20447;-55
2024/01/17 05:58:38;;;;;;;8.47;7.23;;;-3.70;99.90;;;;;;5022640;28;20516;-55
2024/01/17 06:01:05;;;;;;;12.80;7.57;;;-3.70;99.90;;;;;;5023104;28;20541;-55
2024/01/17 06:03:32;;;;;;;12.33;7.57;;;-3.70;99.90;;;;;;5029857;28;20555;-56
2024/01/17 06:05:58;;;;;;;11.17;7.67;;;-3.70;99.90;;;;;;5031486;28;20497;-55
2024/01/17 06:08:26;;;;;;;10.80;7.53;;;-3.70;99.90;;;;;;5030141;28;20490;-56
2024/01/17 06:10:53;;;;;;;11.83;7.50;;;-3.70;99.90;;;;;;5028241;28;20493;-55
2024/01/17 06:13:19;;;;;;;8.73;7.03;;;-3.70;99.90;;;;;;5028098;28;20455;-56
2024/01/17 06:15:46;;;;;;;9.50;7.83;;;-3.70;99.90;;;;;;5023612;28;20520;-56
2024/01/17 06:18:12;;;;;;;10.43;7.73;;;-3.60;99.90;;;;;;5018624;28;20455;-57
2024/01/17 06:20:39;;;;;;;9.27;7.33;;;-3.70;99.90;;;;;;5030057;28;20949;-57
2024/01/17 06:23:06;;;;;;;11.40;7.70;;;-3.60;99.90;;;;;;5025109;28;20917;-56
2024/01/17 06:25:33;;;;;;;18.63;8.27;;;-3.60;99.90;;;;;;5022355;28;20824;-56
2024/01/17 06:28:00;;;;;;;14.13;7.43;;;-3.60;99.90;;;;;;5025122;28;20459;-55
2024/01/17 06:30:27;;;;;;;12.47;9.13;;;-3.60;99.90;;;;;;5020835;28;20494;-55
2024/01/17 06:32:53;;;;;;;12.27;8.20;;;-3.60;99.90;;;;;;5022730;28;20439;-55
2024/01/17 06:35:20;;;;;;;9.83;7.47;;;-3.60;99.90;;;;;;5021066;28;20490;-56
2024/01/17 06:37:47;;;;;;;13.53;8.13;;;-3.60;99.90;;;;;;5026324;28;20538;-55
2024/01/17 06:40:13;;;;;;;12.27;8.23;;;-3.60;99.90;;;;;;5020157;28;20560;-55
2024/01/17 06:42:41;;;;;;;13.20;7.00;;;-3.60;99.90;;;;;;5023237;28;20530;-55
2024/01/17 06:45:10;;;;;;;13.43;8.70;;;-3.60;99.90;;;;;;5024062;28;20554;-55
2024/01/17 06:47:36;;;;;;;11.30;7.40;;;-3.60;99.90;;;;;;5018112;28;20484;-55
2024/01/17 06:50:03;;;;;;;12.00;7.27;;;-3.60;99.90;;;;;;5024816;28;20443;-55
2024/01/17 06:52:30;;;;;;;12.90;7.70;;;-3.60;99.90;;;;;;5029697;28;20439;-56
2024/01/17 06:54:57;;;;;;;10.73;7.90;;;-3.60;99.90;;;;;;5029833;28;20953;-55
2024/01/17 06:57:23;;;;;;;15.40;8.07;;;-3.60;99.90;;;;;;5026955;28;20883;-55
2024/01/17 06:59:51;;;;;;;10.97;7.47;;;-3.60;99.90;;;;;;5029797;28;20463;-54
2024/01/17 07:02:18;;;;;;;13.33;7.60;;;-3.60;99.90;;;;;;5027429;28;20463;-55
2024/01/17 07:04:44;;;;;;;10.30;6.60;;;-3.50;99.90;;;;;;5030034;28;20442;-56
2024/01/17 07:07:11;;;;;;;14.83;7.97;;;-3.50;99.90;;;;;;5030933;28;20478;-54
2024/01/17 07:09:37;;;;;;;58.33;34.30;;;-3.50;99.90;;;;;;5023356;28;20464;-55
2024/01/17 07:12:05;;;;;;;32.10;22.40;;;-3.50;99.90;;;;;;5027814;28;20471;-56
2024/01/17 07:14:31;;;;;;;32.17;27.00;;;-3.50;99.90;;;;;;5020524;28;20523;-55
2024/01/17 07:17:00;;;;;;;21.63;14.33;;;-3.60;99.90;;;;;;5022979;28;20950;-55
2024/01/17 07:19:27;;;;;;;61.43;54.73;;;-3.50;99.90;;;;;;5021511;28;20466;-55
2024/01/17 07:21:54;;;;;;;25.80;22.93;;;-3.50;99.90;;;;;;5027721;28;20487;-55
2024/01/17 07:24:20;;;;;;;13.43;11.00;;;-3.50;99.90;;;;;;5027846;28;20504;-55
2024/01/17 07:26:47;;;;;;;34.97;31.17;;;-3.50;99.90;;;;;;5039537;28;20469;-56
2024/01/17 07:29:14;;;;;;;24.43;20.73;;;-3.50;99.90;;;;;;5035125;28;20485;-56
2024/01/17 07:31:41;;;;;;;25.27;22.57;;;-3.40;99.90;;;;;;5034366;28;20473;-56
2024/01/17 07:34:08;;;;;;;19.93;11.20;;;-3.40;99.90;;;;;;5036469;28;20462;-56
2024/01/17 07:36:35;;;;;;;9.23;7.50;;;-3.50;99.90;;;;;;5036106;28;20520;-56
2024/01/17 07:39:02;;;;;;;10.40;7.43;;;-3.40;99.90;;;;;;5039304;28;20603;-56
2024/01/17 07:41:29;;;;;;;10.40;7.40;;;-3.40;99.90;;;;;;5028426;28;20872;-56
2024/01/17 07:43:55;;;;;;;8.27;6.67;;;-3.30;99.90;;;;;;5044074;28;20489;-57
2024/01/17 07:46:22;;;;;;;16.33;7.67;;;-3.40;99.90;;;;;;5028879;28;20516;-57
2024/01/17 07:48:49;;;;;;;11.07;7.50;;;-3.30;99.90;;;;;;5016894;28;20510;-57
2024/01/17 07:51:17;;;;;;;10.40;7.30;;;-3.30;99.90;;;;;;5020495;28;20457;-55
2024/01/17 07:53:43;;;;;;;10.10;6.73;;;-3.20;99.90;;;;;;5029416;28;20589;-57
2024/01/17 07:56:10;;;;;;;10.30;7.27;;;-3.20;99.90;;;;;;5030333;28;20508;-57
2024/01/17 07:58:37;;;;;;;13.83;6.17;;;-3.10;99.90;;;;;;5034368;28;20540;-56
2024/01/17 08:01:05;;;;;;;16.50;6.67;;;-3.20;96.60;;;;;;5028278;28;20459;-57
2024/01/17 08:03:31;;;;;;;9.80;6.83;;;-3.10;84.20;;;;;;5027970;28;20887;-57
2024/01/17 08:05:58;;;;;;;10.73;7.00;;;-3.00;20.80;;;;;;5031453;28;20461;-57
2024/01/17 08:08:26;;;;;;;10.07;7.37;;;-3.00;25.60;;;;;;5028622;28;20487;-56
2024/01/17 08:10:52;;;;;;;9.47;6.77;;;-3.00;30.70;;;;;;5021945;28;21024;-57
2024/01/17 08:13:19;;;;;;;9.87;6.70;;;-2.90;29.80;;;;;;5024220;28;20456;-56
2024/01/17 08:15:46;;;;;;;7.73;6.53;;;-2.90;31.70;;;;;;5029149;28;20454;-56
2024/01/17 08:18:13;;;;;;;8.57;6.77;;;-2.80;36.40;;;;;;5023671;28;20515;-57
2024/01/17 08:20:40;;;;;;;8.40;6.60;;;-2.80;40.00;;;;;;5028411;28;21652;-55
2024/01/17 08:23:08;;;;;;;12.60;7.20;;;-2.70;42.40;;;;;;5024125;28;21008;-57
2024/01/17 08:25:36;;;;;;;10.77;6.90;;;-2.70;47.70;;;;;;5034816;28;20470;-57
2024/01/17 08:28:03;;;;;;;7.50;6.57;;;-2.70;52.10;;;;;;5032227;28;20510;-57
2024/01/17 08:30:29;;;;;;;7.23;6.40;;;-2.60;52.60;;;;;;5024326;28;20459;-56
2024/01/17 08:32:56;;;;;;;11.37;7.43;;;-2.50;60.90;;;;;;5026967;28;20957;-57
2024/01/17 08:35:23;;;;;;;11.50;7.97;;;-2.40;61.00;;;;;;5034253;28;20467;-57
2024/01/17 08:37:49;;;;;;;10.03;6.70;;;-2.30;66.50;;;;;;5021133;28;20541;-57
2024/01/17 08:40:16;;;;;;;7.93;7.20;;;-2.20;73.10;;;;;;5028618;28;20466;-57
2024/01/17 08:42:45;;;;;;;10.27;6.80;;;-2.30;79.80;;;;;;5034305;28;20518;-57
2024/01/17 08:45:12;;;;;;;8.37;6.63;;;-2.10;77.10;;;;;;5031014;28;21001;-57
2024/01/17 08:47:42;;;;;;;10.83;7.23;;;-1.90;83.10;;;;;;5028471;28;20535;-56
2024/01/17 08:50:09;;;;;;;10.30;7.73;;;-1.80;86.80;;;;;;5027036;28;20458;-57
2024/01/17 08:52:36;;;;;;;9.50;7.40;;;-1.60;92.50;;;;;;5036913;28;20520;-56
2024/01/17 08:55:05;;;;;;;10.63;7.30;;;-1.60;96.90;;;;;;5024528;28;20482;-56
2024/01/17 08:57:32;;;;;;;10.27;7.50;;;-1.60;99.90;;;;;;5022917;28;20490;-56
2024/01/17 09:00:00;;;;;;;9.53;7.37;;;-1.30;98.40;;;;;;5018326;28;20455;-56
2024/01/17 09:02:27;;;;;;;11.63;7.13;;;-1.20;99.90;;;;;;5027955;28;20494;-56
2024/01/17 09:04:53;;;;;;;12.10;7.80;;;-1.00;99.90;;;;;;5031277;28;20894;-56
2024/01/17 09:07:20;;;;;;;9.50;7.80;;;-0.90;99.90;;;;;;5034328;28;20475;-55
2024/01/17 09:09:47;;;;;;;10.30;7.37;;;-0.60;99.90;;;;;;5023831;28;20497;-56
2024/01/17 09:12:17;;;;;;;11.80;7.77;;;-0.60;99.90;;;;;;5038131;28;20485;-62
2024/01/17 09:14:43;;;;;;;9.50;7.17;;;-0.40;99.90;;;;;;5051918;28;20448;-58
2024/01/17 09:17:11;;;;;;;10.27;6.60;;;-0.60;99.90;;;;;;5048296;28;20479;-56
2024/01/17 09:19:38;;;;;;;7.33;6.60;;;-0.80;99.90;;;;;;5050140;28;20485;-58
2024/01/17 09:22:05;;;;;;;7.50;6.80;;;-1.00;99.90;;;;;;5035683;28;20459;-56
2024/01/17 09:24:32;;;;;;;11.33;7.20;;;-1.00;99.90;;;;;;5033745;28;20901;-56
2024/01/17 09:26:58;;;;;;;9.00;8.10;;;-0.90;99.90;;;;;;5024012;28;20462;-60
2024/01/17 09:29:25;;;;;;;9.30;7.27;;;-0.90;99.90;;;;;;5026968;28;20859;-61
2024/01/17 09:31:51;;;;;;;6.93;6.23;;;-0.80;99.90;;;;;;5032599;28;20466;-55
2024/01/17 09:34:19;;;;;;;8.10;7.03;;;-0.90;99.90;;;;;;5023826;28;20466;-56
2024/01/17 09:36:46;;;;;;;8.97;7.60;;;-1.00;99.90;;;;;;5025577;28;20486;-57
2024/01/17 09:39:13;;;;;;;11.80;7.00;;;-0.90;99.90;;;;;;5029494;28;20491;-57
2024/01/17 09:41:40;;;;;;;7.87;7.07;;;-0.90;99.90;;;;;;5030699;28;20494;-57
2024/01/17 09:44:07;;;;;;;14.50;7.67;;;-0.80;99.90;;;;;;5030902;28;20519;-56
2024/01/17 09:46:35;;;;;;;8.37;7.47;;;-0.80;99.90;;;;;;5028989;28;20470;-57
2024/01/17 09:49:02;;;;;;;11.50;7.00;;;-0.70;99.90;;;;;;5022289;28;20539;-56
2024/01/17 09:51:33;;;;;;;7.70;6.97;;;-0.80;99.90;;;;;;5025666;28;20854;-59
2024/01/17 09:54:02;;;;;;;8.83;7.57;;;-1.00;99.90;;;;;;5023295;28;20845;-56
2024/01/17 09:56:32;;;;;;;14.90;8.43;;;-0.90;99.90;;;;;;5027138;28;20459;-56
2024/01/17 09:59:03;;;;;;;8.83;6.90;;;-0.90;99.90;;;;;;5023452;28;20588;-56
2024/01/17 10:01:31;;;;;;;10.73;7.47;;;-0.80;99.90;;;;;;5027547;28;20815;-56
2024/01/17 10:04:00;;;;;;;9.47;7.43;;;-0.80;99.90;;;;;;5021400;28;20572;-57
2024/01/17 10:06:30;;;;;;;8.87;7.70;;;-0.60;99.90;;;;;;5019471;28;20490;-55
2024/01/17 10:08:58;;;;;;;8.40;7.10;;;-0.60;99.90;;;;;;5034230;28;20531;-56
2024/01/17 10:11:25;;;;;;;11.63;7.97;;;-0.50;99.90;;;;;;5029298;28;20861;-56
2024/01/17 10:13:52;;;;;;;8.40;7.13;;;-0.50;99.90;;;;;;5020206;28;20464;-56
2024/01/17 10:16:19;;;;;;;12.63;7.90;;;-0.50;99.90;;;;;;5022616;28;20459;-56
2024/01/17 10:18:46;;;;;;;10.93;7.67;;;-0.60;99.90;;;;;;5026940;28;20524;-55
2024/01/17 10:21:12;;;;;;;8.67;7.63;;;-0.30;99.90;;;;;;5025586;28;20482;-57
2024/01/17 10:23:40;;;;;;;11.30;7.60;;;-0.10;99.90;;;;;;5028942;28;20526;-56
2024/01/17 10:26:08;;;;;;;9.50;8.13;;;-0.30;99.90;;;;;;5026090;28;20817;-57
2024/01/17 10:28:35;;;;;;;8.20;7.40;;;-0.10;99.90;;;;;;5031366;28;20525;-57
2024/01/17 10:31:04;;;;;;;13.33;8.67;;;0.00;99.90;;;;;;5035879;28;20830;-57
2024/01/17 10:33:32;;;;;;;7.97;7.17;;;0.00;99.90;;;;;;5035643;28;20485;-56
2024/01/17 10:35:57;;;;;;;8.00;6.80;;;-0.10;99.90;;;;;;5036233;28;20824;-56
2024/01/17 10:38:24;;;;;;;11.07;6.80;;;-0.30;99.90;;;;;;5033277;28;20516;-56
2024/01/17 10:41:04;;;;;;;8.20;6.40;;;-0.20;99.90;;;;;;5032253;28;20550;-58
2024/01/17 10:43:30;;;;;;;8.43;7.37;;;-0.20;99.90;;;;;;5042505;28;20494;-57
2024/01/17 10:45:57;;;;;;;10.40;6.83;;;-0.20;99.90;;;;;;5041071;28;20468;-56
2024/01/17 10:48:24;;;;;;;8.83;6.77;;;-0.10;99.90;;;;;;5037587;28;20482;-56
2024/01/17 10:50:55;;;;;;;12.70;7.77;;;-0.10;99.90;;;;;;5041700;28;20459;-57
2024/01/17 10:53:22;;;;;;;10.30;8.00;;;0.00;99.90;;;;;;5041845;28;20466;-58
2024/01/17 10:55:54;;;;;;;11.97;7.73;;;0.00;99.90;;;;;;5028299;28;20548;-56
2024/01/17 10:58:23;;;;;;;10.90;7.60;;;0.00;99.90;;;;;;5030414;28;20487;-55
2024/01/17 11:00:51;;;;;;;8.83;7.90;;;0.00;99.90;;;;;;5030487;28;20486;-57
2024/01/17 11:03:20;;;;;;;10.13;7.50;;;-0.10;99.90;;;;;;5027724;28;20468;-57
2024/01/17 11:05:50;;;;;;;9.80;7.47;;;0.00;99.90;;;;;;5034101;28;20491;-57
2024/01/17 11:08:18;;;;;;;10.40;7.50;;;0.10;99.90;;;;;;5028999;28;20478;-57
2024/01/17 11:10:46;;;;;;;9.87;7.53;;;0.00;99.90;;;;;;5029136;28;21055;-55
2024/01/17 11:13:15;;;;;;;10.33;7.80;;;0.00;99.90;;;;;;5027420;28;20887;-58
2024/01/17 11:15:44;;;;;;;11.10;7.77;;;0.00;99.90;;;;;;5031401;28;20494;-56
2024/01/17 11:18:11;;;;;;;9.30;7.20;;;0.10;99.90;;;;;;5025263;28;20507;-56
2024/01/17 11:20:40;;;;;;;11.00;8.00;;;0.00;99.90;;;;;;5031808;28;20517;-56
2024/01/17 11:23:09;;;;;;;11.30;8.00;;;0.10;99.90;;;;;;5024503;28;20463;-56
2024/01/17 11:25:42;;;;;;;8.90;7.20;;;0.20;99.90;;;;;;5034224;28;20498;-57
2024/01/17 11:28:17;;;;;;;9.20;7.50;;;0.20;99.90;;;;;;5018471;28;20549;-56
2024/01/17 11:30:58;;;;;;;13.37;7.20;;;0.40;99.90;;;;;;5020971;28;20486;-56
2024/01/17 11:33:27;;;;;;;10.13;7.67;;;0.70;99.90;;;;;;5031588;28;21036;-56
2024/01/17 11:35:53;;;;;;;11.27;8.07;;;0.70;99.90;;;;;;5035335;28;20535;-56
2024/01/17 11:38:33;;;;;;;9.60;8.57;;;0.70;99.90;;;;;;5026193;28;20518;-56
2024/01/17 11:41:05;;;;;;;10.73;7.93;;;0.60;99.90;;;;;;5029256;28;20865;-56
2024/01/17 11:43:34;;;;;;;9.10;8.17;;;0.50;99.90;;;;;;5028035;28;20490;-55
2024/01/17 11:46:05;;;;;;;9.83;7.67;;;0.50;99.90;;;;;;5029559;28;20478;-56
2024/01/17 11:48:32;;;;;;;11.73;8.23;;;0.50;99.90;;;;;;5025269;28;20507;-55
2024/01/17 11:51:04;;;;;;;12.60;8.53;;;0.50;99.90;;;;;;5036099;28;20458;-57
2024/01/17 11:53:32;;;;;;;11.13;8.67;;;0.50;99.90;;;;;;5035647;28;20975;-57
2024/01/17 11:56:00;;;;;;;9.43;7.97;;;0.50;99.90;;;;;;5027935;28;20486;-55
2024/01/17 11:58:41;;;;;;;12.60;9.00;;;0.50;99.90;;;;;;5027293;28;20988;-56
2024/01/17 12:01:12;;;;;;;15.73;9.10;;;0.30;99.90;;;;;;5024770;28;20827;-56
2024/01/17 12:03:39;;;;;;;10.53;7.90;;;0.30;99.90;;;;;;5029032;28;21270;-57
2024/01/17 12:06:08;;;;;;;9.70;8.30;;;0.40;99.90;;;;;;5030698;28;20753;-56
2024/01/17 12:08:36;;;;;;;21.83;8.53;;;0.20;99.90;;;;;;5029844;28;20529;-55
2024/01/17 12:11:04;;;;;;;8.60;7.70;;;0.30;99.90;;;;;;5031084;28;20812;-56
2024/01/17 12:13:30;;;;;;;15.30;9.03;;;0.40;99.90;;;;;;5033440;28;20458;-56
2024/01/17 12:15:58;;;;;;;13.17;9.03;;;0.40;99.90;;;;;;5026060;28;20528;-56
2024/01/17 12:18:27;;;;;;;10.97;7.73;;;0.40;99.90;;;;;;5025855;28;20510;-57
2024/01/17 12:20:55;;;;;;;10.87;8.73;;;0.60;99.90;;;;;;5024585;28;20562;-56
2024/01/17 12:23:22;;;;;;;13.40;8.30;;;0.60;99.90;;;;;;5027626;28;20973;-57
2024/01/17 12:25:49;;;;;;;14.10;8.60;;;0.50;99.90;;;;;;5033122;28;20487;-57
2024/01/17 12:28:22;;;;;;;8.23;7.37;;;0.50;99.90;;;;;;5031604;28;20486;-57
2024/01/17 12:30:59;;;;;;;9.93;8.70;;;0.40;99.90;;;;;;5023737;28;20463;-57
2024/01/17 12:33:27;;;;;;;13.07;7.70;;;0.50;99.90;;;;;;5029216;28;20888;-57
2024/01/17 12:35:55;;;;;;;15.10;10.00;;;0.50;99.90;;;;;;5024121;28;20458;-57
2024/01/17 12:38:22;;;;;;;16.43;9.00;;;0.70;99.90;;;;;;5029556;28;20478;-56
2024/01/17 12:40:49;;;;;;;15.03;8.50;;;0.80;99.90;;;;;;5032652;28;20963;-56
2024/01/17 12:43:17;;;;;;;11.80;8.27;;;0.60;99.90;;;;;;5027675;28;21238;-56